UATEUACC

Guest
Details From UATE - Aktau
To UACC - Astana Intl
Flight Number -
Tags Generated
Created
Modified
Stats Distance 928 nm / 1,719 km
Max Altitude 0 ft / 0 m
Waypoints 3
Social Downloads 2
Likes 0
Share VATSIM

Download

Looking for another format? Having issues loading an existing format? Contact us
Advertisement - Login to hide

Notes

Generated

Route

UATE AST UACC

ID Type Via Altitude Latitude Longitude Leg Dist Tot Dist Heading (true) Name
O UATE APT - 0 ft / 0 m 43.86648˚ 51.07808˚ - 0 nm - -
AST VOR - 0 ft / 0 m 51.00111˚ 71.43417˚ 927 nm 927 nm 55° / 70° ASTANA VOR-DME
O UACC APT - 0 ft / 0 m 51.01097˚ 71.44957˚ 0 nm 927 nm 45° / 45° -

Altitude Profile

Advertisement - Login to hide

Weather


0- 5 10 15 20 25 30 35+ Temperature / ° C

Clouds and Precipitation
Forecast for 2017-12-13 00:00 UTC. Updated an hour ago

Ground ~20,000 ft ~40,000 ft Winds

UATE

Details ICAO UATE (SCO)
Name AKTAU
Region Kazakhstan and Kyrgyzstan
Timezone Asia/Aqtau (UTC+5.0)
Stats Elevation 73 ft / 22 m (AMSL)
Location 43.860243° 51.091535°
Runways 2
Magnetic Variation 7.465° E

METAR

UATE 122200Z 11006MPS CAVOK M04/M05 Q1031 R12/0///70 NOSIG RMK QFE771/1028

Decode

TAF

TAF UATE 121703Z 1218/1318 13006MPS 9999 BKN005 TX03/1309Z TNM03/1302Z

Decode

Departure Runways

ID Width Length Bearing (true) Bearing (mag) Surface Threshold Offset Overrun Length
12 148 ft / 45 m 8,664 ft / 2,641 m 122.79° 115.32° Asphalt 0 ft / 0 m 820 ft / 250 m
12L 151 ft / 46 m 9,729 ft / 2,966 m 123.04° 115.57° Dirt 0 ft / 0 m 0 ft / 0 m
30 148 ft / 45 m 8,664 ft / 2,641 m 302.81° 295.34° Asphalt 0 ft / 0 m 171 ft / 52 m
30R 151 ft / 46 m 9,729 ft / 2,966 m 303.07° 295.60° Dirt 0 ft / 0 m 0 ft / 0 m

UACC

Details ICAO UACC (TSE)
Name Astana INTL
Region Kazakhstan and Kyrgyzstan
Timezone Asia/Almaty (UTC+6.0)
Stats Elevation 1,165 ft / 355 m (AMSL)
Location 51.022180° 71.467062°
Runways 1
Magnetic Variation 9.843° E

METAR

UACC 122200Z 08002MPS 2700 BR BKN002 M26/M28 Q1039 R04/450555 TEMPO 0200 FZFG VV001 RMK QBB060 QFE747/0996

Decode

TAF

TAF AMD UACC 121908Z 1219/1318 07005MPS 0700 FZFG VV002 TXM16/1309Z TNM28/1302Z TEMPO 1219/1305 VRB02MPS 0200 FZFG VV001 BECMG 1305/1307 10005MPS 9999 NSW SCT007 TEMPO 1312/1318 3000 IC BR SCT005

Decode

Destination Runways

ID Width Length Bearing (true) Bearing (mag) Surface Threshold Offset Overrun Length
04 148 ft / 45 m 11,467 ft / 3,495 m 44.45° 34.61° Asphalt 0 ft / 0 m 0 ft / 0 m
22 148 ft / 45 m 11,467 ft / 3,495 m 224.48° 214.64° Asphalt 0 ft / 0 m 0 ft / 0 m

Approach Navaids

Runway Type Ident Frequency Range Bearing (true) Bearing (mag) Slope Elevation
04 Localiser IMO 109.50 MHz 18 nm / 33 km 44.29° 34.45° - 1,165 ft / 355 m (AMSL)
04 Glidescope IMO 109.50 MHz 10 nm / 19 km 44.46° 34.62° 3.00° 1,165 ft / 355 m (AMSL)
22 Localiser IAK 111.70 MHz 18 nm / 33 km 224.56° 214.72° - 1,165 ft / 355 m (AMSL)
22 Glidescope IAK 111.70 MHz 10 nm / 19 km 224.46° 214.62° 3.00° 1,165 ft / 355 m (AMSL)

Popular Alternatives